Gardendale, Texas
Current Conditions -  °F | °C
As of 11:53 AM on Thursday 29 Jan 2015 (Local Time) from KODO Reporting Station
Few Clouds Few Clouds  
Wind Chill: 59°   Ceiling: Unl
Heat Index: 59°   Visibility: 10mi
Dew Point: 34°   Wind: 26mph
Humidity: 39%   Direction: 60°ENE
Pressure: 30.36"   Gusts: 33mph
Location:  32.02°N, 102.36°W
Report Text: KODO 291753Z AUTO 06023G29KT 10SM FEW080 15/01 A3036 RMK AO2 PK WND 07030/1717 SLP256 T01500011 10156 20072 51020
Loading
Personal Weather Stations






























Interactive Weather Map New forecast layout! Learn more

10-Day Weather Forecast

Advertisements
Track Severe Weather on mobile